Time;durP1;ratioP1;P1;durP2;ratioP2;P2;SDS_P1;SDS_P2;PMS_P1;PMS_P2;Temp;Humidity;BMP_temperature;BMP_pressure;BME280_temperature;BME280_humidity;BME280_pressure;Samples;Min_cycle;Max_cycle;Signal;HPM_P1;HPM_P2
2022/03/23 00:00:15;;;;;;;;;14.20;12.40;;;;;6.07;47.54;101290.84;5114400;28;9486;-62
2022/03/23 00:02:43;;;;;;;;;16.00;12.60;;;;;6.07;47.63;101298.78;5096175;28;8827;-63
2022/03/23 00:05:10;;;;;;;;;15.00;11.80;;;;;6.05;47.85;101288.25;5095863;28;8828;-62
2022/03/23 00:07:38;;;;;;;;;8.60;7.20;;;;;6.04;47.70;101290.97;5095780;28;8842;-62
2022/03/23 00:10:06;;;;;;;;;13.20;12.40;;;;;6.00;47.93;101290.22;5096105;28;8978;-62
2022/03/23 00:12:34;;;;;;;;;10.00;9.40;;;;;5.98;47.77;101293.84;5116468;28;8845;-62
2022/03/23 00:15:01;;;;;;;;;13.40;13.40;;;;;5.94;47.94;101300.19;5116240;28;8864;-62
2022/03/23 00:17:29;;;;;;;;;12.20;12.20;;;;;5.86;48.06;101297.81;5116485;28;8829;-61
2022/03/23 00:19:57;;;;;;;;;15.40;13.80;;;;;5.76;48.14;101300.88;5116479;28;8940;-62
2022/03/23 00:22:27;;;;;;;;;12.60;12.00;;;;;5.67;48.18;101299.44;5096095;28;8938;-62
2022/03/23 00:24:56;;;;;;;;;14.20;13.40;;;;;5.59;48.54;101298.84;5095962;28;8954;-62
2022/03/23 00:27:24;;;;;;;;;12.00;11.60;;;;;5.54;48.76;101297.31;5095604;28;8846;-62
2022/03/23 00:29:51;;;;;;;;;18.40;15.80;;;;;5.51;48.63;101297.41;5096119;28;8820;-63
2022/03/23 00:32:19;;;;;;;;;11.60;10.80;;;;;5.49;48.40;101299.25;5114191;28;8944;-63
2022/03/23 00:34:47;;;;;;;;;12.00;10.80;;;;;5.47;48.77;101299.31;5116411;28;8837;-62
2022/03/23 00:37:15;;;;;;;;;6.20;4.80;;;;;5.48;49.01;101292.25;5116459;28;8971;-64
2022/03/23 00:39:42;;;;;;;;;14.80;13.60;;;;;5.45;48.84;101295.88;5117990;28;8837;-63
2022/03/23 00:42:10;;;;;;;;;8.20;4.80;;;;;5.44;48.65;101288.00;5102910;28;8857;-62
2022/03/23 00:44:38;;;;;;;;;9.60;9.60;;;;;5.44;48.67;101293.28;5099948;28;8970;-63
2022/03/23 00:47:06;;;;;;;;;6.60;6.40;;;;;5.43;48.92;101294.19;5098851;28;8819;-63
2022/03/23 00:49:33;;;;;;;;;15.60;13.40;;;;;5.42;49.07;101293.34;5099603;28;8851;-63
2022/03/23 00:52:04;;;;;;;;;4.20;2.00;;;;;5.40;48.56;101295.16;5114715;28;8853;-63
2022/03/23 00:54:34;;;;;;;;;13.00;13.00;;;;;5.41;48.63;101290.75;5120551;28;8829;-63
2022/03/23 00:57:01;;;;;;;;;15.60;12.60;;;;;5.40;48.99;101292.53;5119480;28;8837;-63
2022/03/23 00:59:29;;;;;;;;;14.20;12.80;;;;;5.39;48.67;101292.59;5117913;28;8906;-62
2022/03/23 01:01:57;;;;;;;;;9.20;8.00;;;;;5.34;48.88;101284.84;5103445;28;8816;-64
2022/03/23 01:04:25;;;;;;;;;8.80;8.20;;;;;5.31;48.53;101292.03;5099070;28;8843;-62
2022/03/23 01:06:53;;;;;;;;;10.20;9.80;;;;;5.25;48.74;101286.97;5099429;28;8945;-63
2022/03/23 01:09:22;;;;;;;;;12.60;12.60;;;;;5.20;48.98;101292.41;5099491;28;8819;-63
2022/03/23 01:11:51;;;;;;;;;15.00;13.40;;;;;5.16;49.38;101289.94;5112572;28;8814;-62
2022/03/23 01:14:19;;;;;;;;;14.60;9.20;;;;;5.11;49.14;101289.22;5119586;28;8918;-63
2022/03/23 01:16:47;;;;;;;;;13.40;12.60;;;;;5.06;49.21;101293.81;5119405;28;8833;-63
2022/03/23 01:19:15;;;;;;;;;10.60;7.80;;;;;5.02;49.88;101289.56;5119758;28;8837;-62
2022/03/23 01:21:43;;;;;;;;;11.60;11.60;;;;;4.99;49.82;101282.63;5107058;28;8815;-62
2022/03/23 01:24:10;;;;;;;;;13.40;13.20;;;;;4.98;49.02;101295.84;5099170;28;8874;-62
2022/03/23 01:26:38;;;;;;;;;15.00;13.00;;;;;4.94;49.40;101287.19;5098660;28;8835;-62
2022/03/23 01:29:06;;;;;;;;;14.60;14.60;;;;;4.92;49.80;101286.38;5099566;28;9450;-62
2022/03/23 01:31:33;;;;;;;;;18.20;13.00;;;;;4.91;49.90;101291.72;5109270;28;8949;-62
2022/03/23 01:34:02;;;;;;;;;15.40;12.00;;;;;4.88;50.16;101290.03;5119555;28;8849;-62
2022/03/23 01:36:30;;;;;;;;;7.40;6.80;;;;;4.84;50.05;101292.84;5119405;28;8837;-62
2022/03/23 01:38:57;;;;;;;;;13.80;12.80;;;;;4.80;49.99;101286.81;5118505;28;8849;-62
2022/03/23 01:41:25;;;;;;;;;14.40;11.20;;;;;4.77;50.11;101280.75;5109652;28;8917;-63
2022/03/23 01:43:53;;;;;;;;;12.80;11.80;;;;;4.73;49.93;101290.56;5098765;28;8848;-63
2022/03/23 01:46:20;;;;;;;;;6.00;3.80;;;;;4.71;49.56;101283.66;5098762;28;8847;-62
2022/03/23 01:48:48;;;;;;;;;14.80;14.40;;;;;4.68;49.58;101274.06;5098785;28;8839;-63
2022/03/23 01:51:17;;;;;;;;;7.40;6.80;;;;;4.67;50.10;101280.25;5105062;28;9495;-62
2022/03/23 01:53:45;;;;;;;;;9.00;8.20;;;;;4.67;49.85;101274.97;5119002;28;8843;-63
2022/03/23 01:56:13;;;;;;;;;9.00;7.80;;;;;4.67;50.18;101280.25;5118781;28;8857;-62
2022/03/23 01:58:40;;;;;;;;;10.80;9.20;;;;;4.67;50.12;101279.38;5119110;28;8891;-62
2022/03/23 02:01:09;;;;;;;;;9.40;8.60;;;;;4.66;50.26;101277.66;5111463;28;8842;-63
2022/03/23 02:03:36;;;;;;;;;9.60;8.20;;;;;4.64;49.80;101279.50;5098489;28;8842;-62
2022/03/23 02:06:04;;;;;;;;;14.80;12.20;;;;;4.65;50.36;101273.28;5098394;28;9589;-62
2022/03/23 02:08:32;;;;;;;;;13.60;10.80;;;;;4.64;50.13;101280.34;5098128;28;8831;-62
2022/03/23 02:11:00;;;;;;;;;10.00;10.00;;;;;4.64;50.11;101271.56;5103426;28;8829;-62
2022/03/23 02:13:27;;;;;;;;;8.80;8.20;;;;;4.63;49.95;101267.22;5118073;28;8846;-63
2022/03/23 02:15:55;;;;;;;;;11.20;11.20;;;;;4.62;50.02;101271.63;5118992;28;8830;-63
2022/03/23 02:18:23;;;;;;;;;5.20;5.20;;;;;4.63;49.85;101267.22;5118410;28;8829;-63
2022/03/23 02:20:52;;;;;;;;;12.40;11.20;;;;;4.61;50.25;101263.75;5114561;28;8844;-62
2022/03/23 02:23:19;;;;;;;;;10.80;10.00;;;;;4.59;50.33;101273.50;5098090;28;8803;-62
2022/03/23 02:25:47;;;;;;;;;12.40;10.20;;;;;4.56;50.40;101260.44;5097746;28;8973;-62
2022/03/23 02:28:15;;;;;;;;;9.80;9.80;;;;;4.52;50.18;101271.97;5098022;28;9011;-63
2022/03/23 02:30:45;;;;;;;;;9.20;7.40;;;;;4.47;50.30;101260.72;5100130;28;8836;-62
2022/03/23 02:33:13;;;;;;;;;13.60;13.40;;;;;4.41;50.66;101266.22;5116608;28;8948;-62
2022/03/23 02:35:40;;;;;;;;;12.40;10.00;;;;;4.36;50.48;101263.75;5118063;28;8914;-63
2022/03/23 02:38:08;;;;;;;;;13.00;10.40;;;;;4.30;51.09;101257.78;5118356;28;8841;-63
2022/03/23 02:40:36;;;;;;;;;12.00;12.00;;;;;4.22;50.90;101265.09;5117087;28;9533;-63
2022/03/23 02:43:04;;;;;;;;;9.20;7.80;;;;;4.16;50.75;101265.28;5097611;28;9001;-62
2022/03/23 02:45:31;;;;;;;;;7.20;6.00;;;;;4.12;50.91;101258.41;5097365;28;8837;-62
2022/03/23 02:47:59;;;;;;;;;12.20;10.00;;;;;4.07;51.38;101257.69;5097701;28;8908;-62
2022/03/23 02:50:27;;;;;;;;;10.00;9.60;;;;;4.03;51.02;101253.44;5097309;28;8843;-63
2022/03/23 03:04:11;;;;;;;;;11.60;10.40;;;;;3.96;50.91;101262.44;5070886;28;8836;-62
2022/03/23 03:06:38;;;;;;;;;9.60;8.20;;;;;3.96;51.37;101257.19;5097020;28;8850;-62
2022/03/23 03:09:06;;;;;;;;;12.60;9.40;;;;;3.97;51.54;101262.38;5097488;28;8812;-62
2022/03/23 03:11:34;;;;;;;;;14.20;12.40;;;;;3.96;51.20;101262.44;5105245;28;8813;-62
2022/03/23 03:14:02;;;;;;;;;9.20;7.80;;;;;3.96;50.72;101265.06;5116987;28;9015;-62
2022/03/23 03:16:30;;;;;;;;;9.60;9.00;;;;;3.95;51.77;101266.00;5117552;28;8833;-62
2022/03/23 03:18:57;;;;;;;;;18.00;14.60;;;;;3.94;51.26;101269.50;5117001;28;8821;-63
2022/03/23 03:21:25;;;;;;;;;12.20;12.00;;;;;3.92;51.03;101273.97;5109461;28;8826;-63
2022/03/23 03:23:53;;;;;;;;;9.80;9.00;;;;;3.89;51.79;101266.19;5096223;28;8847;-63
2022/03/23 03:26:21;;;;;;;;;4.80;4.80;;;;;3.85;50.72;101270.69;5096747;28;8820;-62
2022/03/23 03:28:50;;;;;;;;;13.00;12.80;;;;;3.83;51.59;101269.00;5096785;28;8843;-62
2022/03/23 03:31:18;;;;;;;;;13.00;11.20;;;;;3.80;51.20;101271.75;5102020;28;8834;-62
2022/03/23 03:33:46;;;;;;;;;12.80;12.00;;;;;3.79;51.37;101277.88;5116331;28;9542;-64
2022/03/23 03:36:13;;;;;;;;;12.60;9.00;;;;;3.78;51.33;101273.53;5116535;28;8839;-63
2022/03/23 03:38:41;;;;;;;;;4.80;4.80;;;;;3.77;51.91;101271.81;5116979;28;8856;-63
2022/03/23 03:41:09;;;;;;;;;9.80;9.00;;;;;3.76;51.21;101270.09;5112196;28;8816;-62
2022/03/23 03:43:37;;;;;;;;;9.00;9.00;;;;;3.75;51.34;101276.28;5096759;28;8851;-62
2022/03/23 03:46:06;;;;;;;;;13.60;11.20;;;;;3.73;51.74;101278.09;5096722;28;8874;-62
2022/03/23 03:48:34;;;;;;;;;18.00;15.00;;;;;3.71;51.77;101274.63;5096877;28;8828;-62
2022/03/23 03:51:02;;;;;;;;;13.00;12.60;;;;;3.69;51.98;101279.09;5099019;28;8821;-62
2022/03/23 03:53:29;;;;;;;;;12.60;11.20;;;;;3.66;51.74;101279.19;5117261;28;8907;-62
2022/03/23 03:56:06;;;;;;;;;10.40;10.00;;;;;3.59;52.29;101285.56;5097551;28;8842;-62
2022/03/23 03:58:34;;;;;;;;;11.80;11.80;;;;;3.51;52.16;101290.19;5095856;28;8824;-63
2022/03/23 04:01:02;;;;;;;;;15.60;13.40;;;;;3.41;52.54;101290.50;5096333;28;8823;-62
2022/03/23 04:03:30;;;;;;;;;12.00;11.60;;;;;3.34;52.29;101286.31;5095998;28;8835;-63
2022/03/23 04:05:58;;;;;;;;;5.80;5.80;;;;;3.28;52.30;101292.63;5112377;28;9501;-62
2022/03/23 04:08:26;;;;;;;;;18.60;10.40;;;;;3.23;52.57;101286.63;5116417;28;8841;-63
2022/03/23 04:10:55;;;;;;;;;10.40;9.60;;;;;3.22;52.74;101294.53;5115396;28;8843;-62
2022/03/23 04:13:23;;;;;;;;;10.20;9.40;;;;;3.23;52.40;101299.78;5115725;28;9519;-62
2022/03/23 04:15:50;;;;;;;;;12.40;11.20;;;;;3.24;53.07;101296.22;5115792;28;8852;-63
2022/03/23 04:18:18;;;;;;;;;7.00;7.00;;;;;3.24;52.76;101301.50;5116024;28;8834;-63
2022/03/23 04:20:46;;;;;;;;;6.40;5.80;;;;;3.26;52.09;101298.84;5115954;28;8833;-63
2022/03/23 04:23:14;;;;;;;;;15.20;12.60;;;;;3.27;52.30;101301.41;5097201;28;8946;-62
2022/03/23 04:25:42;;;;;;;;;10.40;9.40;;;;;3.27;52.79;101300.56;5096212;28;8839;-62
2022/03/23 04:28:09;;;;;;;;;7.80;7.00;;;;;3.26;52.89;101304.94;5095857;28;9497;-64
2022/03/23 04:30:37;;;;;;;;;9.00;8.00;;;;;3.28;52.85;101307.53;5095714;28;8854;-62
2022/03/23 04:33:05;;;;;;;;;12.00;11.20;;;;;3.30;52.37;101306.59;5112337;28;8818;-63
2022/03/23 04:35:33;;;;;;;;;12.00;12.00;;;;;3.30;52.52;101306.59;5116079;28;9249;-63
2022/03/23 04:38:01;;;;;;;;;10.40;9.80;;;;;3.30;52.03;101306.59;5116103;28;8828;-62
2022/03/23 04:40:32;;;;;;;;;5.00;4.80;;;;;3.27;52.96;101316.34;5115720;28;8837;-62
2022/03/23 04:43:00;;;;;;;;;12.40;10.00;;;;;3.21;53.16;101322.66;5100014;28;9462;-62
2022/03/23 04:45:28;;;;;;;;;10.20;9.80;;;;;3.12;52.81;101320.28;5095879;28;8827;-62
2022/03/23 04:47:55;;;;;;;;;7.40;7.00;;;;;3.03;52.59;101320.50;5095768;28;8850;-62
2022/03/23 04:50:23;;;;;;;;;18.20;13.60;;;;;2.95;53.16;101324.25;5095533;28;8855;-63
2022/03/23 04:52:52;;;;;;;;;11.20;9.60;;;;;2.87;53.80;101329.72;5109211;28;8820;-63
2022/03/23 04:55:19;;;;;;;;;0.80;0.40;;;;;2.82;53.41;101323.72;5115884;28;8817;-63
2022/03/23 04:57:47;;;;;;;;;6.60;6.60;;;;;2.79;53.21;101326.41;5115641;28;8829;-62
2022/03/23 05:00:17;;;;;;;;;9.40;9.00;;;;;2.76;53.93;101326.50;5115923;28;8829;-62
2022/03/23 05:02:44;;;;;;;;;12.00;9.80;;;;;2.75;53.68;101326.53;5102474;28;8832;-62
2022/03/23 05:05:12;;;;;;;;;9.80;9.60;;;;;2.75;53.79;101322.16;5095542;28;8864;-63
2022/03/23 05:07:40;;;;;;;;;9.60;9.60;;;;;2.77;53.84;101325.59;5094913;28;8950;-62
2022/03/23 05:10:09;;;;;;;;;17.80;13.80;;;;;2.79;53.49;101329.03;5095178;28;8921;-62
2022/03/23 05:12:37;;;;;;;;;9.20;6.60;;;;;2.82;54.04;101328.97;5106884;28;8810;-62
2022/03/23 05:15:06;;;;;;;;;7.40;7.40;;;;;2.84;53.03;101331.56;5109460;28;8847;-62
2022/03/23 05:17:33;;;;;;;;;8.60;6.40;;;;;2.83;54.08;101328.06;5094175;28;8835;-62
2022/03/23 05:20:01;;;;;;;;;3.00;3.00;;;;;2.83;54.15;101330.72;5098998;28;8841;-62
2022/03/23 05:22:30;;;;;;;;;14.80;14.60;;;;;2.82;54.07;101323.72;5115094;28;8975;-63
2022/03/23 05:24:58;;;;;;;;;13.40;10.00;;;;;2.85;53.50;101334.16;5114359;28;8842;-62
2022/03/23 05:27:26;;;;;;;;;10.00;8.20;;;;;2.88;53.58;101328.81;5116506;28;8833;-63
2022/03/23 05:29:53;;;;;;;;;15.80;12.00;;;;;2.90;53.54;101328.78;5115080;28;8838;-62
2022/03/23 05:32:21;;;;;;;;;12.20;10.80;;;;;2.94;53.40;101333.91;5097041;28;9571;-65
2022/03/23 05:34:50;;;;;;;;;9.00;9.00;;;;;3.02;53.10;101333.72;5097716;28;8835;-62
2022/03/23 05:37:18;;;;;;;;;11.20;9.80;;;;;3.06;53.51;101330.09;5098378;28;9687;-62
2022/03/23 05:39:45;;;;;;;;;13.00;10.00;;;;;3.10;53.76;101331.75;5099495;28;8881;-62
2022/03/23 05:42:13;;;;;;;;;14.20;13.60;;;;;3.14;52.94;101328.97;5118352;28;8825;-62
2022/03/23 05:44:41;;;;;;;;;12.00;10.40;;;;;3.19;52.87;101334.97;5111018;28;8978;-62
2022/03/23 05:47:09;;;;;;;;;12.20;12.00;;;;;3.23;53.02;101328.72;5097991;28;8831;-62
2022/03/23 05:49:36;;;;;;;;;10.80;7.40;;;;;3.28;52.72;101332.09;5098670;28;8954;-61
2022/03/23 05:52:04;;;;;;;;;16.00;15.00;;;;;3.34;53.13;101337.16;5112294;28;8833;-63
2022/03/23 05:54:32;;;;;;;;;12.60;9.80;;;;;3.40;52.99;101333.53;5118525;28;8848;-62
2022/03/23 05:57:02;;;;;;;;;16.40;15.20;;;;;3.45;52.37;101336.88;5118483;28;8948;-67
2022/03/23 05:59:30;;;;;;;;;8.80;7.80;;;;;3.48;52.96;101327.13;5100512;28;8807;-62
2022/03/23 06:01:58;;;;;;;;;12.20;12.20;;;;;3.53;53.05;101333.13;5096773;28;8819;-62
2022/03/23 06:04:26;;;;;;;;;12.80;10.40;;;;;3.57;52.64;101337.38;5097997;28;8847;-62
2022/03/23 06:06:53;;;;;;;;;14.60;11.60;;;;;3.63;52.71;101334.56;5096987;28;8839;-63
2022/03/23 06:09:21;;;;;;;;;15.80;15.00;;;;;3.65;52.85;101340.69;5096760;28;9501;-62
2022/03/23 06:11:49;;;;;;;;;13.80;11.60;;;;;3.64;52.64;101335.44;5096949;28;8835;-62
2022/03/23 06:14:17;;;;;;;;;12.40;10.80;;;;;3.63;52.90;101331.94;5096067;28;8868;-62
2022/03/23 06:16:44;;;;;;;;;14.80;13.40;;;;;3.65;53.11;101338.03;5096333;28;8867;-62
2022/03/23 06:19:13;;;;;;;;;13.40;13.40;;;;;3.69;52.71;101334.41;5095385;28;8914;-62
2022/03/23 06:21:41;;;;;;;;;10.40;10.40;;;;;3.74;52.83;101340.41;5094721;28;8850;-62
2022/03/23 06:24:09;;;;;;;;;13.80;11.40;;;;;3.81;52.20;101339.31;5096993;28;8828;-63
2022/03/23 06:26:37;;;;;;;;;9.00;7.80;;;;;3.94;51.94;101344.16;5095628;28;8827;-61
2022/03/23 06:29:05;;;;;;;;;12.20;10.40;;;;;4.07;51.91;101339.38;5095748;28;8855;-63
2022/03/23 06:31:37;;;;;;;;;12.00;11.20;;;;;4.23;52.08;101345.88;5094991;28;8831;-62
2022/03/23 06:34:05;;;;;;;;;12.60;12.40;;;;;4.37;51.36;101341.03;5095002;28;9614;-63
2022/03/23 06:36:35;;;;;;;;;15.00;15.00;;;;;4.53;51.46;101347.53;5094948;28;8840;-62
2022/03/23 06:39:02;;;;;;;;;15.00;14.40;;;;;4.69;51.55;101343.47;5092659;28;8824;-63
2022/03/23 06:41:30;;;;;;;;;11.40;11.00;;;;;4.85;51.20;101347.31;5093118;28;8855;-62
2022/03/23 06:43:58;;;;;;;;;15.40;14.20;;;;;5.00;51.26;101352.09;5093038;28;9505;-62
2022/03/23 06:46:26;;;;;;;;;11.40;9.40;;;;;5.14;50.95;101352.47;5093207;28;8874;-62
2022/03/23 06:48:54;;;;;;;;;19.80;18.00;;;;;5.23;51.19;101357.44;5092164;28;8832;-62
2022/03/23 06:51:22;;;;;;;;;13.60;11.80;;;;;5.26;50.58;101349.41;5092861;28;8820;-63
2022/03/23 06:53:49;;;;;;;;;12.60;10.80;;;;;5.30;50.83;101361.56;5092324;28;9205;-63
2022/03/23 06:56:17;;;;;;;;;7.80;6.60;;;;;5.35;51.24;101359.63;5092184;28;9240;-63
2022/03/23 06:58:45;;;;;;;;;9.60;9.00;;;;;5.40;51.12;101355.91;5092194;28;8885;-62
2022/03/23 07:01:13;;;;;;;;;10.80;10.00;;;;;5.46;50.45;101354.84;5090359;28;8948;-62
2022/03/23 07:03:41;;;;;;;;;17.00;14.60;;;;;5.53;50.66;101356.34;5092236;28;8832;-67
2022/03/23 07:06:09;;;;;;;;;12.00;11.60;;;;;5.61;51.10;101349.84;5090068;28;8885;-63
2022/03/23 07:11:22;;;;;;;;;15.60;15.40;;;;;5.90;50.22;101348.78;5091203;28;8847;-63
2022/03/23 07:13:49;;;;;;;;;15.60;14.20;;;;;6.03;50.29;101361.50;5089879;28;8843;-63
2022/03/23 07:16:17;;;;;;;;;11.20;10.20;;;;;6.19;50.30;101345.88;5091173;28;8835;-62
2022/03/23 07:18:45;;;;;;;;;13.80;11.20;;;;;6.37;50.16;101350.47;5091535;28;8859;-63
2022/03/23 07:21:13;;;;;;;;;13.80;12.40;;;;;6.51;49.20;101343.66;5091895;28;8838;-63
2022/03/23 07:23:40;;;;;;;;;12.80;11.60;;;;;6.69;49.08;101342.06;5091823;28;8843;-63
2022/03/23 07:26:11;;;;;;;;;22.40;15.40;;;;;6.85;49.28;101351.09;5092425;28;8971;-63
2022/03/23 07:28:38;;;;;;;;;12.20;11.60;;;;;7.01;49.09;101349.50;5093732;28;8845;-62
2022/03/23 07:31:06;;;;;;;;;12.60;12.40;;;;;7.19;48.68;101349.56;5092533;28;8823;-62
2022/03/23 07:33:34;;;;;;;;;16.40;15.40;;;;;7.40;48.98;101350.41;5092230;28;8832;-62
2022/03/23 07:36:02;;;;;;;;;17.20;15.40;;;;;7.59;47.78;101344.22;5091931;28;8824;-65
2022/03/23 07:38:29;;;;;;;;;9.40;9.20;;;;;7.78;47.75;101343.34;5093127;28;8853;-63
2022/03/23 07:40:58;;;;;;;;;19.20;14.20;;;;;7.97;47.56;101340.69;5093233;28;8824;-62
2022/03/23 07:43:25;;;;;;;;;16.00;14.00;;;;;8.14;47.55;101340.78;5092978;28;8863;-63
2022/03/23 07:45:53;;;;;;;;;8.00;8.00;;;;;8.32;47.32;101343.44;5091973;28;8969;-63
2022/03/23 07:48:23;;;;;;;;;18.20;17.20;;;;;8.53;46.94;101342.38;5090776;28;8827;-62
2022/03/23 07:50:52;;;;;;;;;16.20;15.80;;;;;8.74;46.54;101341.34;5092053;28;8847;-64
2022/03/23 07:53:20;;;;;;;;;19.20;18.00;;;;;8.98;46.52;101345.41;5091775;28;8866;-63
2022/03/23 07:55:47;;;;;;;;;20.40;16.40;;;;;9.22;46.59;101346.84;5091203;28;8965;-63
2022/03/23 07:58:15;;;;;;;;;19.40;18.00;;;;;9.47;45.98;101343.72;5092573;28;8940;-62
2022/03/23 08:00:45;;;;;;;;;21.20;18.80;;;;;9.73;45.81;101349.38;5090740;28;8859;-63
2022/03/23 08:03:13;;;;;;;;;15.60;14.20;;;;;9.96;45.74;101343.66;5091370;28;8839;-63
2022/03/23 08:05:42;;;;;;;;;17.60;16.60;;;;;10.14;45.11;101340.06;5091817;28;8924;-62
2022/03/23 08:08:10;;;;;;;;;17.00;17.00;;;;;10.32;45.14;101344.34;5091731;28;8823;-62
2022/03/23 08:10:40;;;;;;;;;18.60;18.00;;;;;10.46;44.94;101332.94;5092475;28;8843;-63
2022/03/23 08:13:09;;;;;;;;;17.60;15.80;;;;;10.66;44.49;101340.63;5091716;28;8823;-62
2022/03/23 08:15:36;;;;;;;;;21.60;20.60;;;;;10.89;44.72;101338.34;5091955;28;8848;-62
2022/03/23 08:18:04;;;;;;;;;15.20;14.60;;;;;11.12;44.21;101343.16;5092087;28;8832;-62
2022/03/23 08:20:35;;;;;;;;;12.00;9.40;;;;;11.31;44.38;101330.44;5091274;28;8828;-62
2022/03/23 08:23:03;;;;;;;;;14.00;12.20;;;;;11.45;44.20;101330.47;5090876;28;9501;-63
2022/03/23 08:25:31;;;;;;;;;9.00;6.20;;;;;11.60;44.20;101334.06;5091016;28;9604;-62
2022/03/23 08:28:03;;;;;;;;;20.60;18.60;;;;;11.74;44.04;101334.06;5090686;28;8824;-62
2022/03/23 08:30:31;;;;;;;;;26.00;22.50;;;;;11.90;43.83;101324.97;5090988;28;8862;-62
2022/03/23 08:32:59;;;;;;;;;19.50;18.00;;;;;12.09;43.40;101330.88;5088158;28;8857;-63
2022/03/23 08:35:32;;;;;;;;;23.50;17.50;;;;;12.28;43.33;101328.72;5088147;28;8847;-62
2022/03/23 08:38:00;;;;;;;;;23.50;18.75;;;;;12.44;42.91;101326.78;5089380;28;8847;-62
2022/03/23 08:40:29;;;;;;;;;20.75;18.00;;;;;12.63;43.31;101329.97;5087478;28;8853;-62
2022/03/23 08:42:58;;;;;;;;;23.75;22.25;;;;;12.81;42.68;101320.72;5089160;28;8828;-62
2022/03/23 08:45:25;;;;;;;;;12.50;12.50;;;;;12.98;42.50;101324.03;5091182;28;8831;-63
2022/03/23 08:47:54;;;;;;;;;18.25;17.50;;;;;13.18;42.47;101320.88;5088876;28;8841;-62
2022/03/23 08:50:24;;;;;;;;;20.00;18.25;;;;;13.51;42.10;101323.03;5088194;28;8846;-62
2022/03/23 08:52:53;;;;;;;;;18.00;15.25;;;;;13.84;41.11;101313.50;5089130;28;8828;-62
2022/03/23 08:55:23;;;;;;;;;23.50;21.50;;;;;14.20;41.04;101318.06;5088763;28;8932;-63
2022/03/23 08:57:50;;;;;;;;;17.25;16.50;;;;;14.64;40.75;101316.47;5089723;28;8840;-62
2022/03/23 09:00:18;;;;;;;;;21.25;20.25;;;;;15.11;40.77;101313.75;5090188;28;8831;-63
2022/03/23 09:02:46;;;;;;;;;24.00;22.67;;;;;15.62;39.82;101311.59;5094343;28;8835;-63
2022/03/23 09:05:15;;;;;;;;;24.00;21.25;;;;;16.12;39.29;101305.72;5093231;28;8843;-63
2022/03/23 09:07:42;;;;;;;;;21.25;21.00;;;;;16.57;38.88;101310.94;5094529;28;8823;-64
2022/03/23 09:10:11;;;;;;;;;18.50;18.00;;;;;16.97;38.72;101304.78;5092593;28;8846;-63
2022/03/23 09:12:39;;;;;;;;;30.25;25.50;;;;;17.33;38.44;101301.63;5091530;28;8831;-62
2022/03/23 09:15:07;;;;;;;;;27.25;22.00;;;;;17.64;37.92;101298.06;5091257;28;8940;-63
2022/03/23 09:17:34;;;;;;;;;26.25;21.25;;;;;17.97;37.86;101297.78;5091571;28;8843;-63
2022/03/23 09:20:05;;;;;;;;;24.50;23.25;;;;;18.24;37.20;101298.03;5092540;28;8835;-62
2022/03/23 09:22:34;;;;;;;;;17.00;15.50;;;;;18.43;37.15;101299.94;5093952;28;9474;-62
2022/03/23 09:25:03;;;;;;;;;30.00;28.00;;;;;18.56;37.07;101298.69;5093617;28;8974;-62
2022/03/23 09:27:31;;;;;;;;;20.50;16.00;;;;;18.66;37.17;101296.84;5092524;28;8839;-62
2022/03/23 09:29:58;;;;;;;;;25.50;24.50;;;;;18.72;37.12;101298.13;5092805;28;8824;-63
2022/03/23 09:32:26;;;;;;;;;27.75;27.00;;;;;18.64;37.09;101301.53;5093049;28;8830;-63
2022/03/23 09:34:54;;;;;;;;;27.00;23.25;;;;;18.52;37.60;101299.94;5092698;28;8849;-63
2022/03/23 09:40:07;;;;;;;;;26.00;23.25;;;;;18.28;37.96;101290.50;5094093;28;8849;-63
2022/03/23 09:42:35;;;;;;;;;31.50;28.00;;;;;18.22;38.09;101294.59;5093418;28;8882;-64
2022/03/23 09:45:03;;;;;;;;;34.00;30.25;;;;;18.17;38.93;101291.47;5094355;28;8853;-63
2022/03/23 09:47:31;;;;;;;;;30.75;27.50;;;;;18.13;38.51;101292.72;5094933;28;8820;-63
2022/03/23 09:49:59;;;;;;;;;38.50;30.50;;;;;18.10;38.56;101292.13;5094357;28;8839;-63
2022/03/23 09:52:27;;;;;;;;;28.50;27.00;;;;;18.10;38.49;101292.13;5093727;28;8848;-63
2022/03/23 09:54:55;;;;;;;;;27.50;26.00;;;;;18.12;38.69;101285.63;5094208;28;8965;-62
2022/03/23 09:57:23;;;;;;;;;35.75;28.00;;;;;18.15;38.44;101282.63;5094215;28;8835;-63
2022/03/23 09:59:54;;;;;;;;;31.00;29.00;;;;;18.26;38.45;101287.06;5093258;28;9323;-62
2022/03/23 10:02:42;;;;;;;;;28.50;26.50;;;;;18.45;38.27;101289.84;5092142;28;8856;-63
2022/03/23 10:05:12;;;;;;;;;20.00;19.25;;;;;18.74;38.02;101288.06;5093710;28;8846;-62
2022/03/23 10:07:39;;;;;;;;;24.50;21.50;;;;;19.28;37.27;101282.94;5092825;28;9131;-64
2022/03/23 10:10:07;;;;;;;;;31.50;25.50;;;;;20.20;35.93;101277.50;5093372;28;8832;-63
2022/03/23 10:12:35;;;;;;;;;20.00;17.00;;;;;21.26;34.93;101277.44;5091402;28;8835;-62
2022/03/23 10:15:03;;;;;;;;;35.50;31.50;;;;;22.28;33.40;101263.78;5092388;28;8951;-62
2022/03/23 10:17:30;;;;;;;;;33.25;29.75;;;;;23.25;32.65;101263.84;5093341;28;8835;-62
2022/03/23 10:19:58;;;;;;;;;27.80;25.00;;;;;24.15;31.93;101260.75;5093716;28;8950;-63
2022/03/23 10:22:26;;;;;;;;;24.80;23.60;;;;;24.96;30.53;101262.81;5092972;28;8948;-62
2022/03/23 10:24:54;;;;;;;;;26.80;24.00;;;;;25.65;30.27;101255.22;5091412;28;8852;-62
2022/03/23 10:27:23;;;;;;;;;28.40;24.60;;;;;26.32;29.78;101254.09;5091371;28;8884;-62
2022/03/23 10:29:52;;;;;;;;;27.60;27.00;;;;;26.85;28.82;101253.66;5090969;28;9497;-62
2022/03/23 10:32:20;;;;;;;;;27.20;23.20;;;;;27.40;28.38;101262.00;5090203;28;8962;-62
2022/03/23 10:34:49;;;;;;;;;22.80;21.40;;;;;27.90;28.17;101248.06;5091151;28;8944;-64
2022/03/23 10:37:17;;;;;;;;;25.00;22.00;;;;;28.36;28.00;101253.81;5091030;28;8839;-63
2022/03/23 10:39:45;;;;;;;;;21.80;18.20;;;;;28.74;27.61;101252.25;5091823;28;8832;-63
2022/03/23 10:42:12;;;;;;;;;25.80;22.80;;;;;29.09;27.01;101251.91;5090590;28;8843;-63
2022/03/23 10:44:40;;;;;;;;;28.40;23.60;;;;;29.31;27.08;101244.31;5091390;28;8851;-63
2022/03/23 10:47:08;;;;;;;;;17.00;14.80;;;;;29.50;26.78;101248.97;5092913;28;9194;-63
2022/03/23 10:49:36;;;;;;;;;15.60;13.60;;;;;29.77;26.42;101237.75;5093391;28;9060;-62
2022/03/23 10:52:04;;;;;;;;;24.40;21.60;;;;;30.02;26.04;101235.97;5092388;28;8850;-62
2022/03/23 10:54:32;;;;;;;;;19.40;16.00;;;;;30.28;25.61;101230.44;5092260;28;8851;-62
2022/03/23 10:57:00;;;;;;;;;23.60;22.40;;;;;30.52;25.45;101236.00;5093062;28;8839;-62
2022/03/23 10:59:28;;;;;;;;;28.60;27.00;;;;;30.67;25.51;101235.75;5093259;28;8839;-62
2022/03/23 11:01:57;;;;;;;;;24.80;22.80;;;;;30.66;25.60;101224.97;5093224;28;8869;-63
2022/03/23 11:04:28;;;;;;;;;24.80;22.00;;;;;30.73;25.32;101234.88;5092909;28;8924;-63
2022/03/23 11:06:58;;;;;;;;;25.00;23.60;;;;;30.85;24.97;101231.19;5092905;28;8849;-62
2022/03/23 11:17:43;;;;;;;;;21.80;18.80;;;;;31.21;24.78;101214.84;5092840;28;9543;-63
2022/03/23 11:20:11;;;;;;;;;27.20;24.80;;;;;31.36;24.86;101214.50;5091578;28;8847;-62
2022/03/23 11:22:38;;;;;;;;;26.80;22.80;;;;;31.52;24.32;101212.03;5092133;28;8851;-62
2022/03/23 11:25:07;;;;;;;;;19.80;18.40;;;;;31.68;24.10;101216.94;5091652;28;8838;-63
2022/03/23 11:27:36;;;;;;;;;22.80;21.60;;;;;31.90;23.75;101214.59;5114863;28;8844;-63
2022/03/23 11:30:05;;;;;;;;;23.40;19.60;;;;;32.13;23.25;101214.75;5113481;28;8859;-63
2022/03/23 11:32:34;;;;;;;;;16.00;14.40;;;;;32.44;23.38;101212.66;5110925;28;8831;-62
2022/03/23 11:35:04;;;;;;;;;21.40;19.20;;;;;32.67;23.44;101217.44;5110307;28;8851;-62
2022/03/23 11:37:32;;;;;;;;;22.60;18.20;;;;;32.83;22.65;101214.88;5108714;28;9170;-62
2022/03/23 11:40:00;;;;;;;;;29.00;25.40;;;;;32.93;22.76;101217.06;5108872;28;9580;-62
2022/03/23 11:42:29;;;;;;;;;24.20;22.00;;;;;33.15;22.85;101204.41;5111478;28;8837;-62
2022/03/23 11:44:56;;;;;;;;;25.00;23.00;;;;;33.35;22.69;101203.00;5111966;28;8836;-62
2022/03/23 11:47:25;;;;;;;;;23.80;23.00;;;;;33.59;22.76;101195.56;5110676;28;8837;-63
2022/03/23 11:49:52;;;;;;;;;22.60;21.80;;;;;33.85;22.22;101195.06;5108026;28;8875;-63
2022/03/23 11:52:21;;;;;;;;;24.40;22.80;;;;;34.09;21.92;101203.09;5111584;28;8844;-62
2022/03/23 11:57:35;;;;;;;;;20.20;19.40;;;;;34.30;21.91;101194.16;5110958;28;8887;-63